TimeEST,TemperatureF,Dew PointF,Humidity,Sea Level PressureIn,VisibilityMPH,Wind Direction,Wind SpeedMPH,Gust SpeedMPH,PrecipitationIn,Events,Conditions,WindDirDegrees,DateUTC
12:54 AM,50.0,37.9,63,30.15,10.0,Variable,3.5,-,0.00,,Overcast,0,2012-11-20 05:54:00
1:54 AM,46.9,39.0,74,30.14,10.0,ESE,3.5,-,N/A,,Overcast,120,2012-11-20 06:54:00
2:54 AM,48.0,37.9,68,30.13,10.0,SE,3.5,-,N/A,,Overcast,130,2012-11-20 07:54:00
3:54 AM,46.9,39.0,74,30.12,10.0,ESE,4.6,-,N/A,,Overcast,120,2012-11-20 08:54:00
4:54 AM,48.9,37.9,66,30.11,10.0,Calm,Calm,-,N/A,,Overcast,0,2012-11-20 09:54:00
5:54 AM,48.9,37.0,64,30.11,10.0,Calm,Calm,-,N/A,,Overcast,0,2012-11-20 10:54:00
6:54 AM,48.9,37.0,64,30.10,10.0,Calm,Calm,-,N/A,,Overcast,0,2012-11-20 11:54:00
7:54 AM,48.0,37.9,68,30.11,10.0,Calm,Calm,-,N/A,,Overcast,0,2012-11-20 12:54:00
8:54 AM,50.0,39.0,66,30.11,10.0,Calm,Calm,-,N/A,,Overcast,0,2012-11-20 13:54:00
9:54 AM,50.0,39.9,68,30.12,10.0,West,3.5,-,N/A,,Overcast,270,2012-11-20 14:54:00
10:54 AM,51.1,39.9,66,30.13,10.0,Calm,Calm,-,N/A,,Overcast,0,2012-11-20 15:54:00
11:54 AM,53.1,39.9,61,30.11,10.0,Calm,Calm,-,N/A,,Overcast,0,2012-11-20 16:54:00
12:54 PM,55.0,41.0,59,30.08,10.0,West,4.6,-,N/A,,Overcast,270,2012-11-20 17:54:00
1:54 PM,55.0,41.0,59,30.07,10.0,Calm,Calm,-,N/A,,Overcast,0,2012-11-20 18:54:00
2:54 PM,55.9,43.0,62,30.08,10.0,WNW,5.8,-,N/A,,Overcast,300,2012-11-20 19:54:00
3:54 PM,54.0,43.0,66,30.09,10.0,WNW,4.6,-,N/A,,Overcast,300,2012-11-20 20:54:00
4:54 PM,54.0,44.1,69,30.09,10.0,NNW,6.9,-,N/A,,Overcast,340,2012-11-20 21:54:00
5:54 PM,52.0,44.1,74,30.12,10.0,NNW,4.6,-,N/A,,Overcast,340,2012-11-20 22:54:00
6:54 PM,50.0,44.1,80,30.13,10.0,Calm,Calm,-,N/A,,Overcast,0,2012-11-20 23:54:00
7:54 PM,51.1,44.1,77,30.15,9.0,North,3.5,-,N/A,,Overcast,360,2012-11-21 00:54:00
8:54 PM,48.9,44.1,83,30.15,8.0,Calm,Calm,-,N/A,,Overcast,0,2012-11-21 01:54:00
9:54 PM,48.9,44.1,83,30.16,8.0,North,3.5,-,N/A,,Overcast,360,2012-11-21 02:54:00
10:54 PM,50.0,44.1,80,30.17,6.0,NNE,3.5,-,N/A,,Haze,20,2012-11-21 03:54:00
11:54 PM,48.0,43.0,83,30.18,6.0,NNE,3.5,-,N/A,,Haze,20,2012-11-21 04:54:00